createdAt,value
2022-10-03T00:02:04.623Z,56.52
2022-10-03T00:05:02.339Z,56.67
2022-10-03T00:07:33.259Z,56.85
2022-10-03T00:09:41.173Z,57.06
2022-10-03T00:12:04.443Z,57.26
2022-10-03T00:14:23.192Z,57.49
2022-10-03T00:16:57.413Z,57.46
2022-10-03T00:19:31.838Z,57.38
2022-10-03T00:22:18.507Z,57.58
2022-10-03T00:24:32.640Z,57.55
2022-10-03T00:26:52.876Z,57.85
2022-10-03T00:29:31.412Z,58.05
2022-10-03T00:31:40.036Z,57.89
2022-10-03T00:34:07.211Z,57.88
2022-10-03T00:36:18.230Z,58.59
2022-10-03T00:38:38.560Z,58.83
2022-10-03T00:40:42.875Z,58.28
2022-10-03T00:43:13.572Z,58.43
2022-10-03T00:45:38.737Z,58.61
2022-10-03T00:47:51.054Z,58.78
2022-10-03T00:50:35.345Z,58.85
2022-10-03T00:52:55.414Z,58.92
2022-10-03T00:55:23.444Z,58.91
2022-10-03T00:57:52.896Z,59.19
2022-10-03T01:00:16.110Z,59.07
2022-10-03T01:02:29.991Z,58.83
2022-10-03T01:04:59.432Z,59.24
2022-10-03T01:07:27.907Z,59.55
2022-10-03T01:09:38.914Z,59.47
2022-10-03T01:12:13.840Z,59.74
2022-10-03T01:14:49.304Z,59.93
2022-10-03T01:16:58.923Z,60.24
2022-10-03T01:19:36.392Z,60.06
2022-10-03T01:21:50.133Z,59.93
2022-10-03T01:23:52.350Z,60.02
2022-10-03T01:26:06.544Z,60.18
2022-10-03T01:29:06.466Z,60.56
2022-10-03T01:31:14.793Z,60.08
2022-10-03T01:33:30.798Z,60.15
2022-10-03T01:35:48.066Z,60.17
2022-10-03T01:38:20.796Z,60.24
2022-10-03T01:40:40.811Z,60.37
2022-10-03T01:42:51.484Z,60.84
2022-10-03T01:45:13.167Z,60.80
2022-10-03T01:47:24.628Z,61.32
2022-10-03T01:49:46.513Z,61.04
2022-10-03T01:52:09.642Z,60.85
2022-10-03T01:54:20.946Z,60.81
2022-10-03T01:56:45.061Z,61.48
2022-10-03T01:59:12.168Z,61.36
2022-10-03T02:01:24.132Z,61.29
2022-10-03T02:03:31.481Z,61.46
2022-10-03T02:06:00.733Z,61.58
2022-10-03T02:08:22.077Z,61.66
2022-10-03T02:10:29.950Z,61.73
2022-10-03T02:12:35.119Z,61.39
2022-10-03T02:15:03.239Z,61.62
2022-10-03T02:17:14.391Z,61.75
2022-10-03T02:19:36.689Z,62.09
2022-10-03T02:21:50.650Z,62.05
2022-10-03T02:24:16.571Z,62.24
2022-10-03T02:26:33.375Z,62.26
2022-10-03T02:29:08.133Z,62.30
2022-10-03T02:31:50.930Z,62.48
2022-10-03T02:34:17.255Z,62.62
2022-10-03T02:36:36.562Z,62.62
2022-10-03T02:39:23.145Z,62.77
2022-10-03T02:41:52.507Z,63.02
2022-10-03T02:44:26.187Z,62.87
2022-10-03T02:46:49.909Z,62.86
2022-10-03T02:49:31.381Z,63.03
2022-10-03T02:51:35.719Z,63.13
2022-10-03T02:54:15.393Z,62.92
2022-10-03T02:56:44.400Z,63.18
2022-10-03T02:59:08.339Z,63.23
2022-10-03T03:01:41.239Z,63.42
2022-10-03T03:04:17.062Z,63.37
2022-10-03T03:06:37.222Z,63.41
2022-10-03T03:09:12.950Z,63.48
2022-10-03T03:11:26.542Z,63.61
2022-10-03T03:13:54.606Z,63.67
2022-10-03T03:16:05.454Z,64.39
2022-10-03T03:18:22.540Z,63.86
2022-10-03T03:20:45.804Z,63.74
2022-10-03T03:23:05.542Z,64.12
2022-10-03T03:25:12.751Z,63.97
2022-10-03T03:27:48.156Z,64.26
2022-10-03T03:29:52.535Z,64.15
2022-10-03T03:32:14.025Z,63.81
2022-10-03T03:34:25.541Z,63.97
2022-10-03T03:36:46.740Z,63.92
2022-10-03T03:39:16.009Z,64.05
2022-10-03T03:41:27.164Z,64.34
2022-10-03T03:43:47.589Z,63.98
2022-10-03T03:46:00.552Z,64.04
2022-10-03T03:48:14.666Z,63.84
2022-10-03T03:50:31.492Z,64.11
2022-10-03T03:52:54.482Z,64.31
2022-10-03T03:54:56.186Z,64.15
2022-10-03T03:57:34.702Z,64.25
2022-10-03T03:59:54.856Z,64.24
2022-10-03T04:02:33.644Z,64.27
2022-10-03T04:04:52.193Z,64.02
2022-10-03T04:07:17.238Z,64.33
2022-10-03T04:09:49.635Z,64.40
2022-10-03T04:12:00.248Z,64.66
2022-10-03T04:14:35.032Z,64.81
2022-10-03T04:17:07.838Z,64.98
2022-10-03T04:19:56.516Z,65.01
2022-10-03T04:22:31.337Z,65.29
2022-10-03T04:24:54.346Z,65.24
2022-10-03T04:27:18.597Z,65.45
2022-10-03T04:29:43.574Z,65.50
2022-10-03T04:32:29.418Z,65.52
2022-10-03T04:35:14.262Z,65.48
2022-10-03T04:37:25.665Z,65.75
2022-10-03T04:39:42.726Z,65.56
2022-10-03T04:42:02.005Z,65.44
2022-10-03T04:44:18.659Z,65.35
2022-10-03T04:46:46.883Z,65.65
2022-10-03T04:49:12.206Z,65.65
2022-10-03T04:51:46.649Z,66.00
2022-10-03T04:54:15.465Z,66.09
2022-10-03T04:57:05.294Z,65.57
2022-10-03T04:59:27.652Z,65.38
2022-10-03T05:01:43.796Z,65.13
2022-10-03T05:04:21.157Z,65.06
2022-10-03T05:06:38.208Z,65.56
2022-10-03T05:09:04.626Z,65.58
2022-10-03T05:11:22.805Z,65.60
2022-10-03T05:13:39.594Z,65.75
2022-10-03T05:15:53.284Z,65.88
2022-10-03T05:18:10.066Z,66.08
2022-10-03T05:20:21.296Z,65.90
2022-10-03T05:22:38.597Z,65.94
2022-10-03T05:24:45.177Z,66.04
2022-10-03T05:26:59.045Z,65.97
2022-10-03T05:29:10.768Z,65.89
2022-10-03T05:31:31.296Z,65.58
2022-10-03T05:33:49.867Z,65.55
2022-10-03T05:36:03.599Z,65.39
2022-10-03T05:38:26.925Z,65.50
2022-10-03T05:40:35.340Z,65.29
2022-10-03T05:42:51.326Z,65.09
2022-10-03T05:45:05.587Z,65.38
2022-10-03T05:47:45.854Z,65.51
2022-10-03T05:49:58.297Z,65.22
2022-10-03T05:52:09.078Z,65.30
2022-10-03T05:54:13.448Z,65.29
2022-10-03T05:56:23.872Z,65.29
2022-10-03T05:58:46.666Z,65.33
2022-10-03T06:01:00.733Z,65.61
2022-10-03T06:03:39.801Z,65.90
2022-10-03T06:06:09.045Z,66.09
2022-10-03T06:08:35.269Z,65.95
2022-10-03T06:10:51.073Z,65.78
2022-10-03T06:12:58.511Z,65.71
2022-10-03T06:15:19.428Z,65.75
2022-10-03T06:17:29.891Z,65.41
2022-10-03T06:19:50.483Z,65.33
2022-10-03T06:22:17.061Z,65.33
2022-10-03T06:24:46.708Z,65.13
2022-10-03T06:27:06.298Z,65.50
2022-10-03T06:29:46.878Z,65.48
2022-10-03T06:32:26.023Z,65.67
2022-10-03T06:34:36.477Z,65.68
2022-10-03T06:36:55.532Z,65.45
2022-10-03T06:39:11.755Z,65.49
2022-10-03T06:41:41.464Z,65.54
2022-10-03T06:43:58.210Z,65.08
2022-10-03T06:46:12.226Z,65.16
2022-10-03T06:48:35.815Z,64.85
2022-10-03T06:51:23.511Z,64.81
2022-10-03T06:53:42.588Z,64.84
2022-10-03T06:55:59.357Z,64.88
2022-10-03T06:58:58.842Z,64.39
2022-10-03T07:01:14.238Z,64.40
2022-10-03T07:03:37.577Z,64.18
2022-10-03T07:06:20.801Z,64.58
2022-10-03T07:08:52.778Z,64.06
2022-10-03T07:11:19.321Z,63.96
2022-10-03T07:13:37.133Z,63.83
2022-10-03T07:16:08.425Z,63.63
2022-10-03T07:18:24.686Z,63.68
2022-10-03T07:20:47.427Z,63.55
2022-10-03T07:23:32.499Z,63.66
2022-10-03T07:25:58.024Z,62.86
2022-10-03T07:28:28.314Z,62.95
2022-10-03T07:31:13.459Z,62.95
2022-10-03T07:33:23.942Z,62.40
2022-10-03T07:36:02.736Z,62.87
2022-10-03T07:38:42.729Z,62.86
2022-10-03T07:41:18.645Z,62.66
2022-10-03T07:43:32.024Z,62.38
2022-10-03T07:45:45.790Z,62.15
2022-10-03T07:48:13.365Z,62.32
2022-10-03T07:50:45.410Z,62.44
2022-10-03T07:53:18.131Z,62.60
2022-10-03T07:55:37.605Z,62.60
2022-10-03T07:57:51.761Z,62.40
2022-10-03T08:00:02.916Z,62.34
2022-10-03T08:02:19.542Z,62.10
2022-10-03T08:04:45.293Z,62.55
2022-10-03T08:07:02.726Z,62.54
2022-10-03T08:09:26.240Z,62.62
2022-10-03T08:11:53.706Z,62.56
2022-10-03T08:14:14.105Z,62.56
2022-10-03T08:16:43.667Z,62.24
2022-10-03T08:18:51.300Z,62.33
2022-10-03T08:20:56.151Z,61.99
2022-10-03T08:23:35.442Z,62.42
2022-10-03T08:26:01.620Z,62.39
2022-10-03T08:28:41.851Z,62.59
2022-10-03T08:31:08.164Z,62.76
2022-10-03T08:33:35.309Z,62.87
2022-10-03T08:36:10.814Z,61.67
2022-10-03T08:38:58.951Z,60.89
2022-10-03T08:41:24.538Z,60.67
2022-10-03T08:43:44.895Z,60.49
2022-10-03T08:46:11.108Z,60.40
2022-10-03T08:48:31.473Z,60.37
2022-10-03T08:50:44.324Z,59.36
2022-10-03T08:53:23.630Z,59.35
2022-10-03T08:56:22.820Z,59.20
2022-10-03T08:59:07.264Z,59.29
2022-10-03T09:01:41.305Z,59.42
2022-10-03T09:04:07.161Z,59.26
2022-10-03T09:07:17.220Z,58.64
2022-10-03T09:09:51.944Z,56.90
2022-10-03T09:12:24.233Z,56.85
2022-10-03T09:14:43.825Z,56.13
2022-10-03T09:17:14.177Z,56.24
2022-10-03T09:19:25.036Z,56.28
2022-10-03T09:21:45.100Z,56.22
2022-10-03T09:23:52.635Z,55.72
2022-10-03T09:26:06.680Z,55.72
2022-10-03T09:28:26.268Z,55.42
2022-10-03T09:31:05.125Z,55.62
2022-10-03T09:33:31.837Z,54.49
2022-10-03T09:35:42.454Z,54.29
2022-10-03T09:38:21.618Z,53.72
2022-10-03T09:40:44.981Z,52.82
2022-10-03T09:43:26.305Z,51.53
2022-10-03T09:45:40.076Z,51.02
2022-10-03T09:48:15.758Z,50.96
2022-10-03T09:50:58.458Z,51.66
2022-10-03T09:53:02.624Z,51.61
2022-10-03T09:55:43.961Z,51.39
2022-10-03T09:57:54.710Z,51.14
2022-10-03T10:00:03.020Z,51.07
2022-10-03T10:02:13.389Z,50.55
2022-10-03T10:04:54.413Z,50.61
2022-10-03T10:07:34.615Z,49.91
2022-10-03T10:09:50.959Z,49.76
2022-10-03T10:12:30.867Z,50.14
2022-10-03T10:15:03.636Z,49.53
2022-10-03T10:17:45.133Z,49.42
2022-10-03T10:20:04.899Z,49.31
2022-10-03T10:22:16.948Z,49.26
2022-10-03T10:24:46.778Z,49.33
2022-10-03T10:27:03.742Z,48.84
2022-10-03T10:29:34.461Z,49.04
2022-10-03T10:31:54.869Z,49.14
2022-10-03T10:34:31.717Z,48.56
2022-10-03T10:36:54.246Z,48.57
2022-10-03T10:39:24.383Z,49.04
2022-10-03T10:42:15.174Z,48.77
2022-10-03T10:44:54.097Z,48.50
2022-10-03T10:47:33.026Z,48.63
2022-10-03T10:49:36.133Z,48.43
2022-10-03T10:51:40.375Z,48.74
2022-10-03T10:54:06.179Z,48.36
2022-10-03T10:56:43.087Z,47.99
2022-10-03T10:59:22.596Z,48.03
2022-10-03T11:01:37.526Z,47.87
2022-10-03T11:04:03.845Z,48.08
2022-10-03T11:06:59.405Z,47.53
2022-10-03T11:09:38.492Z,47.29
2022-10-03T11:12:24.104Z,47.44
2022-10-03T11:14:53.026Z,46.86
2022-10-03T11:17:19.964Z,47.38
2022-10-03T11:19:45.944Z,47.07
2022-10-03T11:22:36.810Z,47.09
2022-10-03T11:24:56.569Z,47.28
2022-10-03T11:27:52.517Z,47.76
2022-10-03T11:30:12.632Z,47.38
2022-10-03T11:32:48.095Z,46.68
2022-10-03T11:35:07.806Z,46.99
2022-10-03T11:37:38.609Z,46.79
2022-10-03T11:39:55.083Z,46.94
2022-10-03T11:42:11.729Z,47.19
2022-10-03T11:44:34.451Z,47.66
2022-10-03T11:46:36.099Z,48.15
2022-10-03T11:48:50.231Z,48.53
2022-10-03T11:50:56.561Z,49.41
2022-10-03T11:53:15.287Z,49.76
2022-10-03T11:55:32.439Z,50.37
2022-10-03T11:57:44.027Z,51.06
2022-10-03T12:00:03.127Z,50.51
2022-10-03T12:02:17.779Z,50.50
2022-10-03T12:04:37.465Z,50.12
2022-10-03T12:07:17.522Z,50.23
2022-10-03T12:09:36.249Z,50.07
2022-10-03T12:12:15.755Z,50.40
2022-10-03T12:14:29.648Z,50.90
2022-10-03T12:17:00.769Z,51.02
2022-10-03T12:19:30.927Z,50.78
2022-10-03T12:22:14.776Z,50.78
2022-10-03T12:24:34.628Z,50.51
2022-10-03T12:26:37.599Z,50.33
2022-10-03T12:28:48.959Z,49.89
2022-10-03T12:31:15.928Z,50.56
2022-10-03T12:34:03.959Z,50.62
2022-10-03T12:36:21.905Z,51.26
2022-10-03T12:38:47.636Z,51.62
2022-10-03T12:41:57.032Z,51.50
2022-10-03T12:44:20.937Z,51.39
2022-10-03T12:46:38.187Z,51.03
2022-10-03T12:49:27.771Z,50.54
2022-10-03T12:52:00.433Z,50.94
2022-10-03T12:54:17.531Z,50.50
2022-10-03T12:56:22.055Z,50.72
2022-10-03T12:58:37.948Z,50.60
2022-10-03T13:00:56.077Z,50.68
2022-10-03T13:03:20.721Z,50.81
2022-10-03T13:05:34.129Z,51.00
2022-10-03T13:07:52.622Z,50.78
2022-10-03T13:10:15.463Z,50.51
2022-10-03T13:12:46.052Z,50.52
2022-10-03T13:15:06.775Z,50.42
2022-10-03T13:17:19.358Z,50.15
2022-10-03T13:19:30.788Z,50.33
2022-10-03T13:21:46.478Z,49.92
2022-10-03T13:24:07.326Z,49.30
2022-10-03T13:26:21.045Z,49.13
2022-10-03T13:28:31.631Z,49.40
2022-10-03T13:30:54.217Z,47.96
2022-10-03T13:33:12.304Z,48.35
2022-10-03T13:35:56.625Z,48.64
2022-10-03T13:38:32.718Z,48.71
2022-10-03T13:40:48.296Z,48.13
2022-10-03T13:42:53.682Z,47.17
2022-10-03T13:45:03.711Z,47.63
2022-10-03T13:47:07.969Z,47.16
2022-10-03T13:49:25.674Z,47.15
2022-10-03T13:51:27.881Z,47.52
2022-10-03T13:53:53.334Z,47.60
2022-10-03T13:56:01.815Z,47.66
2022-10-03T13:59:13.044Z,47.76
2022-10-03T14:01:23.649Z,48.00
2022-10-03T14:03:52.896Z,48.17
2022-10-03T14:06:36.749Z,48.30
2022-10-03T14:08:57.420Z,48.28
2022-10-03T14:11:22.840Z,48.31
2022-10-03T14:13:43.520Z,48.96
2022-10-03T14:16:06.705Z,49.24
2022-10-03T14:18:53.128Z,49.40
2022-10-03T14:21:28.669Z,49.34
2022-10-03T14:23:39.300Z,49.45
2022-10-03T14:25:48.257Z,49.69
2022-10-03T14:28:03.562Z,49.76
2022-10-03T14:30:21.727Z,49.91
2022-10-03T14:32:47.662Z,50.06
2022-10-03T14:35:21.957Z,50.16
2022-10-03T14:37:47.369Z,50.79
2022-10-03T14:39:49.541Z,50.30
2022-10-03T14:42:12.148Z,50.08
2022-10-03T14:44:16.137Z,50.32
2022-10-03T14:46:21.656Z,50.60
2022-10-03T14:48:31.652Z,50.31
2022-10-03T14:50:34.484Z,50.53
2022-10-03T14:52:45.524Z,50.48
2022-10-03T14:54:51.534Z,50.79
2022-10-03T14:56:54.752Z,50.54
2022-10-03T14:59:14.277Z,50.08
2022-10-03T15:01:20.702Z,50.17
2022-10-03T15:03:33.709Z,49.86
2022-10-03T15:05:36.255Z,50.14
2022-10-03T15:07:40.471Z,50.16
2022-10-03T15:09:56.242Z,50.24
2022-10-03T15:12:36.273Z,50.04
2022-10-03T15:14:43.408Z,49.85
2022-10-03T15:16:53.987Z,49.79
2022-10-03T15:19:10.539Z,49.40
2022-10-03T15:21:16.344Z,49.40
2022-10-03T15:23:38.215Z,49.11
2022-10-03T15:25:42.167Z,48.77
2022-10-03T15:27:46.708Z,48.71
2022-10-03T15:29:57.330Z,48.45
2022-10-03T15:31:59.799Z,48.18
2022-10-03T15:34:06.736Z,48.23
2022-10-03T15:36:28.273Z,48.22
2022-10-03T15:38:38.578Z,48.00
2022-10-03T15:40:47.873Z,47.74
2022-10-03T15:43:00.889Z,48.11
2022-10-03T15:45:06.980Z,48.27
2022-10-03T15:47:19.138Z,48.19
2022-10-03T15:49:27.566Z,48.05
2022-10-03T15:51:32.850Z,47.85
2022-10-03T15:53:39.548Z,47.85
2022-10-03T15:55:46.749Z,47.87
2022-10-03T15:57:52.723Z,47.96
2022-10-03T16:00:02.796Z,48.27
2022-10-03T16:02:27.451Z,47.91
2022-10-03T16:04:38.366Z,47.83
2022-10-03T16:07:05.418Z,47.90
2022-10-03T16:09:49.216Z,48.24
2022-10-03T16:11:56.603Z,48.59
2022-10-03T16:14:17.022Z,48.44
2022-10-03T16:16:36.895Z,48.68
2022-10-03T16:18:53.762Z,49.05
2022-10-03T16:20:58.802Z,49.22
2022-10-03T16:23:12.019Z,49.36
2022-10-03T16:25:19.318Z,49.30
2022-10-03T16:27:24.722Z,49.27
2022-10-03T16:29:34.983Z,49.55
2022-10-03T16:31:51.696Z,49.97
2022-10-03T16:34:03.074Z,49.90
2022-10-03T16:36:07.425Z,50.10
2022-10-03T16:38:17.846Z,49.94
2022-10-03T16:40:22.378Z,49.99
2022-10-03T16:42:29.076Z,50.10
2022-10-03T16:44:48.855Z,50.18
2022-10-03T16:46:52.549Z,50.35
2022-10-03T16:49:19.785Z,50.22
2022-10-03T16:51:36.096Z,50.39
2022-10-03T16:53:42.638Z,50.13
2022-10-03T16:56:00.445Z,50.04
2022-10-03T16:58:17.974Z,49.94
2022-10-03T17:00:37.994Z,50.05
2022-10-03T17:02:40.266Z,49.89
2022-10-03T17:04:47.554Z,49.98
2022-10-03T17:06:52.051Z,50.14
2022-10-03T17:09:06.784Z,50.05
2022-10-03T17:11:09.063Z,50.05
2022-10-03T17:13:23.218Z,50.04
2022-10-03T17:15:31.059Z,49.84
2022-10-03T17:17:48.202Z,49.69
2022-10-03T17:20:07.693Z,49.89
2022-10-03T17:22:30.092Z,49.81
2022-10-03T17:24:44.698Z,49.50
2022-10-03T17:26:50.177Z,49.92
2022-10-03T17:29:21.671Z,49.52
2022-10-03T17:31:23.385Z,49.34
2022-10-03T17:33:41.548Z,49.71
2022-10-03T17:36:26.359Z,49.63
2022-10-03T17:38:49.720Z,49.48
2022-10-03T17:40:58.596Z,49.88
2022-10-03T17:43:16.090Z,49.56
2022-10-03T17:45:30.706Z,49.82
2022-10-03T17:48:01.466Z,49.87
2022-10-03T17:50:17.858Z,49.93
2022-10-03T17:52:23.624Z,50.13
2022-10-03T17:54:39.092Z,50.12
2022-10-03T17:56:45.738Z,50.13
2022-10-03T17:59:07.910Z,50.52
2022-10-03T18:01:16.388Z,50.54
2022-10-03T18:03:53.422Z,51.02
2022-10-03T18:06:01.577Z,50.78
2022-10-03T18:08:11.498Z,51.50
2022-10-03T18:10:23.270Z,51.12
2022-10-03T18:12:35.420Z,51.28
2022-10-03T18:14:58.013Z,51.48
2022-10-03T18:17:02.783Z,52.06
2022-10-03T18:19:22.834Z,52.52
2022-10-03T18:22:03.719Z,52.61
2022-10-03T18:24:32.414Z,53.29
2022-10-03T18:26:38.320Z,53.45
2022-10-03T18:29:18.915Z,54.04
2022-10-03T18:31:22.662Z,54.32
2022-10-03T18:33:36.098Z,54.41
2022-10-03T18:35:38.154Z,54.22
2022-10-03T18:37:39.729Z,54.21
2022-10-03T18:39:44.025Z,54.55
2022-10-03T18:41:49.205Z,54.58
2022-10-03T18:44:00.247Z,55.00
2022-10-03T18:46:19.795Z,55.82
2022-10-03T18:49:03.040Z,56.07
2022-10-03T18:51:39.237Z,56.03
2022-10-03T18:53:55.281Z,56.83
2022-10-03T18:56:06.002Z,57.01
2022-10-03T18:58:26.433Z,56.85
2022-10-03T19:00:42.548Z,57.36
2022-10-03T19:02:54.424Z,57.62
2022-10-03T19:05:22.658Z,58.26
2022-10-03T19:07:29.894Z,58.07
2022-10-03T19:09:41.492Z,58.76
2022-10-03T19:12:09.331Z,59.13
2022-10-03T19:14:13.647Z,59.15
2022-10-03T19:17:07.696Z,59.41
2022-10-03T19:19:29.019Z,60.11
2022-10-03T19:21:37.327Z,59.86
2022-10-03T19:23:43.695Z,60.10
2022-10-03T19:25:51.807Z,59.53
2022-10-03T19:28:05.487Z,60.04
2022-10-03T19:30:08.727Z,59.69
2022-10-03T19:32:31.704Z,60.23
2022-10-03T19:34:39.402Z,60.10
2022-10-03T19:36:42.259Z,59.95
2022-10-03T19:38:46.967Z,59.81
2022-10-03T19:41:01.263Z,60.08
2022-10-03T19:43:42.040Z,60.44
2022-10-03T19:46:09.258Z,60.78
2022-10-03T19:48:12.397Z,60.58
2022-10-03T19:50:36.574Z,60.78
2022-10-03T19:52:42.051Z,60.56
2022-10-03T19:54:49.036Z,61.10
2022-10-03T19:56:50.943Z,60.81
2022-10-03T19:59:17.811Z,61.33
2022-10-03T20:01:20.245Z,61.34
2022-10-03T20:03:34.353Z,61.44
2022-10-03T20:05:43.272Z,61.52
2022-10-03T20:07:50.431Z,61.73
2022-10-03T20:10:03.732Z,62.27
2022-10-03T20:12:11.439Z,62.00
2022-10-03T20:14:28.635Z,62.55
2022-10-03T20:16:41.862Z,62.44
2022-10-03T20:18:47.198Z,62.59
2022-10-03T20:21:04.028Z,63.00
2022-10-03T20:23:08.154Z,63.06
2022-10-03T20:25:43.904Z,63.44
2022-10-03T20:27:51.502Z,63.43
2022-10-03T20:32:28.748Z,63.57
2022-10-03T20:34:31.538Z,63.32
2022-10-03T20:36:40.508Z,64.34
2022-10-03T20:39:28.950Z,63.95
2022-10-03T20:41:40.049Z,64.13
2022-10-03T20:43:53.650Z,63.96
2022-10-03T20:46:17.113Z,64.69
2022-10-03T20:48:24.874Z,64.55
2022-10-03T20:50:30.974Z,64.48
2022-10-03T20:52:33.654Z,64.63
2022-10-03T20:54:48.811Z,64.47
2022-10-03T20:57:02.795Z,64.77
2022-10-03T20:59:13.269Z,64.91
2022-10-03T21:01:18.657Z,64.55
2022-10-03T21:03:47.188Z,65.05
2022-10-03T21:05:55.610Z,65.72
2022-10-03T21:08:04.547Z,65.70
2022-10-03T21:10:28.685Z,66.03
2022-10-03T21:12:44.868Z,65.71
2022-10-03T21:14:51.639Z,66.07
2022-10-03T21:16:55.699Z,66.09
2022-10-03T21:19:16.789Z,66.18
2022-10-03T21:21:37.423Z,66.36
2022-10-03T21:23:57.728Z,66.38
2022-10-03T21:26:01.614Z,66.22
2022-10-03T21:28:04.521Z,66.21
2022-10-03T21:30:12.172Z,66.34
2022-10-03T21:32:25.622Z,66.60
2022-10-03T21:34:33.745Z,67.09
2022-10-03T21:37:11.571Z,67.01
2022-10-03T21:39:56.904Z,66.66
2022-10-03T21:42:15.072Z,67.06
2022-10-03T21:44:30.831Z,67.17
2022-10-03T21:46:44.441Z,67.51
2022-10-03T21:49:05.171Z,67.53
2022-10-03T21:51:38.105Z,67.68
2022-10-03T21:54:04.866Z,67.64
2022-10-03T21:56:23.668Z,67.78
2022-10-03T21:59:12.338Z,68.19
2022-10-03T22:01:32.531Z,68.59
2022-10-03T22:03:52.120Z,68.60
2022-10-03T22:06:23.521Z,68.71
2022-10-03T22:08:30.184Z,68.67
2022-10-03T22:10:36.907Z,69.20
2022-10-03T22:12:45.846Z,68.81
2022-10-03T22:14:53.748Z,69.31
2022-10-03T22:17:01.363Z,69.14
2022-10-03T22:19:27.485Z,69.67
2022-10-03T22:21:56.062Z,70.13
2022-10-03T22:24:07.797Z,69.73
2022-10-03T22:26:18.464Z,70.16
2022-10-03T22:29:02.209Z,70.56
2022-10-03T22:31:27.870Z,70.39
2022-10-03T22:33:35.533Z,70.24
2022-10-03T22:35:53.071Z,71.21
2022-10-03T22:37:56.981Z,71.42
2022-10-03T22:40:00.177Z,71.55
2022-10-03T22:42:03.974Z,71.99
2022-10-03T22:44:09.951Z,71.81
2022-10-03T22:46:16.429Z,71.50
2022-10-03T22:48:26.143Z,71.71
2022-10-03T22:50:33.981Z,71.83
2022-10-03T22:52:43.069Z,71.93
2022-10-03T22:54:47.298Z,71.74
2022-10-03T22:56:55.511Z,72.00
2022-10-03T22:59:08.274Z,72.06
2022-10-03T23:01:10.261Z,72.18
2022-10-03T23:03:21.280Z,72.15
2022-10-03T23:05:32.101Z,72.60
2022-10-03T23:07:36.643Z,72.49
2022-10-03T23:09:50.476Z,72.90
2022-10-03T23:11:55.309Z,72.58
2022-10-03T23:13:59.296Z,72.53
2022-10-03T23:16:32.650Z,72.39
2022-10-03T23:18:40.196Z,72.24
2022-10-03T23:20:51.152Z,72.69
2022-10-03T23:22:58.603Z,72.58
2022-10-03T23:25:05.816Z,72.64
2022-10-03T23:28:00.654Z,72.75
2022-10-03T23:30:11.661Z,72.99
2022-10-03T23:32:33.355Z,73.32
2022-10-03T23:34:37.245Z,73.82
2022-10-03T23:37:00.722Z,73.89
2022-10-03T23:39:35.103Z,73.97
2022-10-03T23:41:45.021Z,74.75
2022-10-03T23:43:57.006Z,74.53
2022-10-03T23:46:03.675Z,74.17
2022-10-03T23:48:19.778Z,74.00
2022-10-03T23:50:34.250Z,74.19
2022-10-03T23:52:48.065Z,74.10
2022-10-03T23:54:51.794Z,74.16
2022-10-03T23:57:00.164Z,74.21
2022-10-03T23:59:05.254Z,74.02
